Time;durP1;ratioP1;P1;durP2;ratioP2;P2;SDS_P1;SDS_P2;PMS_P1;PMS_P2;Temp;Humidity;BMP_temperature;BMP_pressure;BME280_temperature;BME280_humidity;BME280_pressure;Samples;Min_cycle;Max_cycle;Signal;HPM_P1;HPM_P2
2021/07/13 00:01:59;;;;;;;10.07;7.93;;;20.40;99.90;;;;;;4938663;29;20023;-90
2021/07/13 00:04:25;;;;;;;9.00;8.10;;;20.40;99.90;;;;;;4938134;29;20446;-90
2021/07/13 00:06:51;;;;;;;8.55;7.65;;;20.40;99.90;;;;;;4938316;29;20111;-90
2021/07/13 00:09:18;;;;;;;8.63;7.32;;;20.40;99.90;;;;;;4938219;29;20450;-90
2021/07/13 00:11:44;;;;;;;9.70;7.88;;;20.40;99.90;;;;;;4938321;29;20030;-90
2021/07/13 00:14:10;;;;;;;9.60;7.78;;;20.40;99.90;;;;;;4938305;29;20028;-90
2021/07/13 00:16:36;;;;;;;8.95;7.65;;;20.40;99.90;;;;;;4938603;29;20386;-90
2021/07/13 00:19:02;;;;;;;8.00;7.13;;;20.40;99.90;;;;;;4938400;29;20023;-89
2021/07/13 00:21:27;;;;;;;10.07;8.10;;;20.30;99.90;;;;;;4940400;29;20034;-90
2021/07/13 00:23:53;;;;;;;9.32;7.40;;;20.30;99.90;;;;;;4942022;29;20027;-90
2021/07/13 00:26:19;;;;;;;8.65;7.50;;;20.30;99.90;;;;;;4941967;29;20030;-89
2021/07/13 00:28:44;;;;;;;8.23;7.13;;;20.20;99.90;;;;;;4942126;29;20031;-89
2021/07/13 00:31:10;;;;;;;11.95;9.90;;;20.20;99.90;;;;;;4959293;29;20362;-90
2021/07/13 00:33:36;;;;;;;10.27;9.18;;;20.20;99.90;;;;;;4942141;29;20023;-91
2021/07/13 00:36:02;;;;;;;11.32;9.30;;;20.10;99.90;;;;;;4942017;29;20070;-90
2021/07/13 00:38:27;;;;;;;8.10;7.30;;;20.00;99.90;;;;;;4941860;29;20082;-89
2021/07/13 00:40:53;;;;;;;9.55;7.43;;;20.00;99.90;;;;;;4941675;29;20113;-90
2021/07/13 00:43:19;;;;;;;8.48;7.57;;;19.90;99.90;;;;;;4941616;29;20070;-89
2021/07/13 00:45:45;;;;;;;7.45;6.68;;;19.90;99.90;;;;;;4946619;29;20573;-90
2021/07/13 00:48:11;;;;;;;8.77;7.47;;;19.80;99.90;;;;;;4922743;29;20367;-90
2021/07/13 00:50:37;;;;;;;7.95;6.57;;;19.80;99.90;;;;;;4939482;29;20043;-90
2021/07/13 00:53:03;;;;;;;8.77;7.88;;;19.80;99.90;;;;;;4922565;29;20026;-90
2021/07/13 00:55:32;;;;;;;9.23;8.38;;;19.80;99.90;;;;;;4922706;29;20035;-90
2021/07/13 00:57:58;;;;;;;10.93;7.95;;;19.80;99.90;;;;;;4939690;29;20027;-89
2021/07/13 01:00:24;;;;;;;8.55;7.60;;;19.80;99.90;;;;;;4922386;29;20034;-89
2021/07/13 01:02:56;;;;;;;9.98;8.60;;;19.80;99.90;;;;;;4922677;29;20028;-90
2021/07/13 01:05:27;;;;;;;8.55;7.30;;;19.80;99.90;;;;;;4925033;29;20106;-89
2021/07/13 01:08:11;;;;;;;9.27;8.27;;;19.80;99.90;;;;;;4940262;29;20107;-90
2021/07/13 01:10:52;;;;;;;8.65;7.75;;;19.90;99.90;;;;;;4941101;29;20047;-90
2021/07/13 01:13:18;;;;;;;9.25;8.35;;;19.90;99.90;;;;;;4942158;29;20024;-90
2021/07/13 01:15:52;;;;;;;7.50;6.70;;;19.90;99.90;;;;;;4938172;29;20127;-89
2021/07/13 01:18:42;;;;;;;9.15;6.30;;;20.00;99.90;;;;;;4928375;29;20023;-91
2021/07/13 01:21:30;;;;;;;7.63;6.53;;;20.00;99.90;;;;;;4922481;29;20028;-90
2021/07/13 01:24:17;;;;;;;8.07;6.47;;;20.00;99.90;;;;;;4939229;29;20034;-90
2021/07/13 01:26:55;;;;;;;6.63;5.85;;;20.10;99.90;;;;;;4921914;29;20078;-89
2021/07/13 01:29:24;;;;;;;8.40;7.60;;;20.20;99.90;;;;;;4922221;29;20028;-90
2021/07/13 01:31:52;;;;;;;6.43;5.70;;;20.20;99.90;;;;;;4921710;29;20020;-90
2021/07/13 01:34:22;;;;;;;7.00;6.30;;;20.20;99.90;;;;;;4921638;29;20407;-90
2021/07/13 01:46:55;;;;;;;8.23;7.32;;;20.30;99.90;;;;;;4938833;29;20055;-90
2021/07/13 01:49:27;;;;;;;7.55;6.40;;;20.30;99.90;;;;;;4921565;29;20059;-90
2021/07/13 01:51:57;;;;;;;8.43;6.97;;;20.30;99.90;;;;;;4921204;29;20027;-90
2021/07/13 01:54:26;;;;;;;7.80;6.53;;;20.30;99.90;;;;;;4921533;29;20486;-90
2021/07/13 01:56:55;;;;;;;8.18;7.03;;;20.40;99.90;;;;;;4921319;29;20478;-90
2021/07/13 01:59:22;;;;;;;11.25;7.38;;;20.40;99.90;;;;;;4921536;29;20475;-90
2021/07/13 02:01:49;;;;;;;7.80;6.95;;;20.30;99.90;;;;;;4921336;29;20103;-90
2021/07/13 02:04:16;;;;;;;9.65;7.82;;;20.30;99.90;;;;;;4921245;29;20028;-89
2021/07/13 02:06:44;;;;;;;10.55;8.52;;;20.30;99.90;;;;;;4921394;29;20035;-90
2021/07/13 02:09:12;;;;;;;11.07;7.07;;;20.30;99.90;;;;;;4921414;29;20181;-89
2021/07/13 02:11:43;;;;;;;7.80;6.57;;;20.30;99.90;;;;;;4921369;29;20023;-90
2021/07/13 02:14:10;;;;;;;9.40;7.22;;;20.30;99.90;;;;;;4921336;29;20371;-90
2021/07/13 02:16:36;;;;;;;7.55;6.35;;;20.20;99.90;;;;;;4921122;29;20411;-90
2021/07/13 02:19:03;;;;;;;9.45;7.20;;;20.20;99.90;;;;;;4921008;29;20024;-89
2021/07/13 02:21:28;;;;;;;7.75;6.60;;;20.20;99.90;;;;;;4921371;29;20023;-90
2021/07/13 02:23:54;;;;;;;8.70;6.05;;;20.20;99.90;;;;;;4921166;29;20110;-90
2021/07/13 02:26:28;;;;;;;8.05;7.13;;;20.20;99.90;;;;;;4920763;29;20063;-89
2021/07/13 02:29:04;;;;;;;8.90;7.82;;;20.20;99.90;;;;;;4921082;29;20514;-89
2021/07/13 02:31:35;;;;;;;8.65;7.15;;;20.30;99.90;;;;;;4920548;29;20066;-89
2021/07/13 02:34:08;;;;;;;9.02;7.50;;;20.30;99.90;;;;;;4921008;29;20138;-91
2021/07/13 02:36:36;;;;;;;12.25;7.63;;;20.30;99.90;;;;;;4921007;29;20527;-89
2021/07/13 02:39:06;;;;;;;9.40;7.32;;;20.30;99.90;;;;;;4920571;29;20049;-90
2021/07/13 02:41:33;;;;;;;10.52;8.20;;;20.30;99.90;;;;;;4936556;29;20093;-90
2021/07/13 02:43:59;;;;;;;9.07;8.18;;;20.40;99.90;;;;;;4919971;29;20046;-90
2021/07/13 02:46:29;;;;;;;8.65;6.55;;;20.40;99.90;;;;;;4936243;29;20032;-90
2021/07/13 02:48:57;;;;;;;6.90;6.20;;;20.50;99.90;;;;;;4920771;29;20035;-90
2021/07/13 02:51:25;;;;;;;8.57;7.65;;;20.60;99.90;;;;;;4920697;29;20502;-90
2021/07/13 02:53:53;;;;;;;8.48;7.07;;;20.60;99.90;;;;;;4920498;29;20534;-91
2021/07/13 02:56:22;;;;;;;8.07;6.90;;;20.70;99.90;;;;;;4920010;29;20028;-90
2021/07/13 02:58:49;;;;;;;7.55;6.72;;;20.80;99.90;;;;;;4920587;29;20034;-90
2021/07/13 03:01:15;;;;;;;7.93;6.20;;;20.90;99.90;;;;;;4920609;29;20023;-90
2021/07/13 03:03:42;;;;;;;8.93;6.78;;;21.00;99.90;;;;;;4940009;29;20087;-90
2021/07/13 03:06:09;;;;;;;8.73;6.40;;;21.10;99.90;;;;;;4937889;29;20039;-89
2021/07/13 03:08:35;;;;;;;8.85;6.88;;;21.20;99.90;;;;;;4938124;29;20024;-89
2021/07/13 03:11:02;;;;;;;7.47;6.47;;;21.30;99.90;;;;;;4931155;29;20027;-89
2021/07/13 03:13:31;;;;;;;8.60;7.35;;;21.30;99.90;;;;;;4934013;29;20078;-89
2021/07/13 03:15:57;;;;;;;7.60;6.55;;;21.40;99.90;;;;;;4929155;29;20051;-90
2021/07/13 03:18:23;;;;;;;10.23;8.07;;;21.40;99.90;;;;;;4920004;29;20070;-90
2021/07/13 03:20:52;;;;;;;7.35;6.65;;;21.50;99.90;;;;;;4920116;29;20027;-90
2021/07/13 03:23:20;;;;;;;7.38;6.35;;;21.50;99.90;;;;;;4920228;29;20024;-90
2021/07/13 03:25:49;;;;;;;8.30;7.05;;;21.50;99.90;;;;;;4919991;29;20032;-90
2021/07/13 03:28:17;;;;;;;9.07;7.97;;;21.60;99.90;;;;;;4919594;29;20035;-90
2021/07/13 03:30:45;;;;;;;9.18;6.95;;;21.60;99.90;;;;;;4920181;29;20020;-91
2021/07/13 03:33:13;;;;;;;8.07;6.65;;;21.60;99.90;;;;;;4919765;29;20028;-90
2021/07/13 03:35:39;;;;;;;7.40;6.70;;;21.70;99.90;;;;;;4919947;29;20043;-90
2021/07/13 03:38:05;;;;;;;8.18;7.32;;;21.70;99.90;;;;;;4919037;29;20027;-91
2021/07/13 03:40:31;;;;;;;9.43;8.40;;;21.80;99.90;;;;;;4919743;29;20046;-91
2021/07/13 03:42:57;;;;;;;8.65;7.75;;;21.80;99.90;;;;;;4920333;29;20456;-90
2021/07/13 03:45:25;;;;;;;8.63;7.80;;;21.90;99.90;;;;;;4919760;29;20126;-90
2021/07/13 03:47:56;;;;;;;8.70;7.70;;;21.90;99.90;;;;;;4919831;29;20036;-91
2021/07/13 03:50:25;;;;;;;7.68;6.85;;;21.90;99.90;;;;;;4936204;29;20082;-91
2021/07/13 03:52:51;;;;;;;9.38;8.15;;;22.00;99.90;;;;;;4919890;29;20035;-90
2021/07/13 03:55:17;;;;;;;9.25;8.35;;;22.10;99.90;;;;;;4919035;29;20027;-90
2021/07/13 03:57:43;;;;;;;8.52;7.63;;;22.20;99.90;;;;;;4920279;29;20474;-90
2021/07/13 04:00:13;;;;;;;8.27;7.40;;;22.20;99.90;;;;;;4920063;29;20024;-90
2021/07/13 04:02:39;;;;;;;8.77;7.50;;;22.20;99.90;;;;;;4936778;29;20031;-91
2021/07/13 04:05:06;;;;;;;7.43;6.72;;;22.30;99.90;;;;;;4919925;29;20031;-91
2021/07/13 04:07:31;;;;;;;10.70;7.72;;;22.40;99.90;;;;;;4919667;29;20035;-91
2021/07/13 04:09:57;;;;;;;9.35;8.02;;;22.50;99.90;;;;;;4919471;29;20498;-91
2021/07/13 04:12:23;;;;;;;11.20;8.00;;;22.50;99.90;;;;;;4919455;29;20070;-91
2021/07/13 04:14:48;;;;;;;10.20;9.13;;;22.60;99.90;;;;;;4936662;29;20111;-91
2021/07/13 04:17:14;;;;;;;8.80;7.90;;;22.60;99.90;;;;;;4919481;29;20423;-90
2021/07/13 04:19:40;;;;;;;8.70;7.82;;;22.70;99.90;;;;;;4935988;29;20024;-90
2021/07/13 04:22:06;;;;;;;8.80;7.90;;;22.70;99.90;;;;;;4919382;29;20024;-91
2021/07/13 04:24:31;;;;;;;11.05;9.90;;;22.80;99.80;;;;;;4919153;29;20028;-90
2021/07/13 04:26:57;;;;;;;10.00;9.00;;;22.80;98.70;;;;;;4919626;29;20036;-91
2021/07/13 04:29:23;;;;;;;9.25;8.35;;;22.80;98.50;;;;;;4920170;29;20470;-91
2021/07/13 04:31:49;;;;;;;9.88;8.30;;;22.80;98.40;;;;;;4936439;29;20406;-91
2021/07/13 04:34:14;;;;;;;10.02;8.90;;;22.80;98.70;;;;;;4918816;29;20024;-90
2021/07/13 04:36:41;;;;;;;9.57;8.18;;;23.00;98.40;;;;;;4919413;29;20379;-90
2021/07/13 04:39:08;;;;;;;8.60;7.70;;;23.00;98.20;;;;;;4905798;29;20028;-90
2021/07/13 04:41:34;;;;;;;8.60;7.70;;;23.10;98.20;;;;;;4917063;29;20020;-90
2021/07/13 04:44:01;;;;;;;8.77;6.95;;;23.20;97.80;;;;;;4903928;29;20019;-91
2021/07/13 04:46:27;;;;;;;8.35;7.57;;;23.20;97.60;;;;;;4899485;29;20055;-90
2021/07/13 04:48:54;;;;;;;7.30;6.60;;;23.30;97.40;;;;;;4899847;29;20408;-90
2021/07/13 04:51:20;;;;;;;7.13;6.43;;;23.40;97.10;;;;;;4900352;29;20094;-91
2021/07/13 04:53:46;;;;;;;8.10;7.20;;;23.50;97.00;;;;;;4917160;29;20070;-91
2021/07/13 04:56:12;;;;;;;8.18;7.38;;;23.60;97.00;;;;;;4899860;29;20048;-91
2021/07/13 04:58:38;;;;;;;8.43;7.03;;;23.70;96.60;;;;;;4900090;29;20052;-91
2021/07/13 05:01:03;;;;;;;8.13;7.32;;;23.80;96.20;;;;;;4900435;29;20379;-91
2021/07/13 05:03:29;;;;;;;7.90;7.10;;;23.80;95.80;;;;;;4899854;29;20158;-91
2021/07/13 05:05:55;;;;;;;7.10;6.40;;;23.90;95.70;;;;;;4900265;29;20087;-91
2021/07/13 05:08:22;;;;;;;8.35;7.55;;;23.90;95.40;;;;;;4915903;29;20476;-92
2021/07/13 05:10:48;;;;;;;7.90;7.10;;;24.00;95.00;;;;;;4956158;29;20023;-91
2021/07/13 05:13:14;;;;;;;9.07;6.95;;;24.00;94.80;;;;;;4946015;29;20023;-92
2021/07/13 05:15:40;;;;;;;7.18;6.47;;;24.10;94.50;;;;;;4937416;29;20042;-91
2021/07/13 05:18:08;;;;;;;6.95;6.25;;;24.20;94.40;;;;;;4921409;29;20054;-92
2021/07/13 05:20:34;;;;;;;7.28;6.32;;;24.30;94.20;;;;;;4927876;29;20102;-91
2021/07/13 05:23:06;;;;;;;7.30;6.57;;;24.50;94.00;;;;;;4924112;29;20028;-91
2021/07/13 05:25:32;;;;;;;9.02;6.10;;;24.60;93.50;;;;;;4918068;29;20078;-91
2021/07/13 05:27:59;;;;;;;9.30;7.40;;;24.70;93.30;;;;;;4931464;29;20087;-90
2021/07/13 05:30:28;;;;;;;7.70;7.00;;;24.80;92.90;;;;;;4934375;29;20023;-92
2021/07/13 05:32:54;;;;;;;8.27;6.57;;;24.80;92.60;;;;;;4929118;29;20019;-91
2021/07/13 05:35:21;;;;;;;10.00;6.40;;;24.90;92.70;;;;;;4929900;29;20048;-94
2021/07/13 05:37:48;;;;;;;7.18;6.47;;;25.00;92.50;;;;;;4923909;29;20028;-93
2021/07/13 05:40:14;;;;;;;8.13;6.85;;;25.00;92.20;;;;;;4942129;29;20027;-93
2021/07/13 05:42:41;;;;;;;7.97;7.18;;;25.10;92.20;;;;;;4966288;29;20034;-91
2021/07/13 05:45:07;;;;;;;9.80;7.45;;;25.20;92.00;;;;;;4951114;29;20035;-92
2021/07/13 05:47:34;;;;;;;8.15;7.35;;;25.20;91.60;;;;;;4951170;29;20115;-93
2021/07/13 05:49:59;;;;;;;7.60;6.45;;;25.20;91.40;;;;;;4948529;29;20059;-92
2021/07/13 05:52:25;;;;;;;7.43;6.47;;;25.30;91.40;;;;;;4924819;29;20020;-92
2021/07/13 05:54:52;;;;;;;8.05;6.70;;;25.50;91.30;;;;;;4923875;29;20036;-93
2021/07/13 05:57:18;;;;;;;7.22;6.53;;;25.60;91.10;;;;;;4922936;29;20015;-92
2021/07/13 05:59:44;;;;;;;7.75;6.45;;;25.70;90.20;;;;;;4922746;29;20099;-91
2021/07/13 06:02:10;;;;;;;7.60;6.80;;;25.70;89.80;;;;;;4923357;29;20020;-92
2021/07/13 06:04:35;;;;;;;7.10;6.40;;;25.70;89.10;;;;;;4923745;29;20114;-92
2021/07/13 06:07:01;;;;;;;7.78;6.97;;;25.70;89.30;;;;;;4923073;29;20057;-92
2021/07/13 06:09:28;;;;;;;7.85;7.05;;;25.70;89.30;;;;;;4922545;29;20031;-92
2021/07/13 06:11:56;;;;;;;9.10;7.47;;;25.80;89.10;;;;;;4921591;29;20082;-92
2021/07/13 06:14:23;;;;;;;10.65;9.00;;;25.90;89.00;;;;;;4921342;29;20027;-91
2021/07/13 06:16:49;;;;;;;8.05;7.22;;;26.00;88.50;;;;;;4922516;29;20023;-90
2021/07/13 06:19:17;;;;;;;8.70;7.80;;;26.10;87.10;;;;;;4921314;29;20028;-90
2021/07/13 06:21:44;;;;;;;8.45;7.32;;;26.00;86.70;;;;;;4945753;29;20024;-91
2021/07/13 06:24:11;;;;;;;10.50;7.97;;;26.00;86.70;;;;;;4922430;29;20465;-91
2021/07/13 06:26:38;;;;;;;7.85;7.07;;;26.10;87.30;;;;;;4938459;29;20042;-91
2021/07/13 06:29:04;;;;;;;9.90;8.00;;;26.20;87.30;;;;;;4921590;29;20035;-91
2021/07/13 06:31:30;;;;;;;8.05;7.25;;;26.30;86.10;;;;;;4922403;29;20071;-91
2021/07/13 06:33:56;;;;;;;8.45;7.55;;;26.30;85.50;;;;;;4923188;29;20032;-92
2021/07/13 06:36:21;;;;;;;7.88;7.07;;;26.40;84.70;;;;;;4924028;29;20127;-91
2021/07/13 06:38:47;;;;;;;8.45;7.65;;;26.30;84.70;;;;;;4911378;29;20027;-91
2021/07/13 06:41:15;;;;;;;8.40;6.88;;;26.30;84.00;;;;;;4917215;29;20036;-92
2021/07/13 06:43:40;;;;;;;8.10;7.30;;;26.20;84.20;;;;;;4920860;29;20020;-90
2021/07/13 06:46:07;;;;;;;7.45;6.65;;;26.30;84.60;;;;;;4937439;29;20101;-91
2021/07/13 06:48:32;;;;;;;10.25;6.82;;;26.30;84.70;;;;;;4938048;29;20459;-91
2021/07/13 06:51:01;;;;;;;8.38;7.50;;;26.50;84.60;;;;;;4936913;29;20047;-92
2021/07/13 06:53:27;;;;;;;8.00;7.13;;;26.70;84.20;;;;;;4901810;29;20040;-90
2021/07/13 06:55:53;;;;;;;8.45;7.38;;;26.80;83.70;;;;;;4911783;29;20122;-92
2021/07/13 06:58:19;;;;;;;8.63;7.80;;;27.00;82.60;;;;;;4919999;29;20070;-91
2021/07/13 07:00:45;;;;;;;7.35;6.65;;;27.00;81.80;;;;;;4935383;29;20031;-91
2021/07/13 07:03:10;;;;;;;8.57;7.78;;;27.10;81.70;;;;;;4920485;29;20026;-91
2021/07/13 07:05:36;;;;;;;8.57;7.68;;;27.10;81.10;;;;;;4905070;29;20040;-91
2021/07/13 07:08:02;;;;;;;8.25;7.45;;;27.10;81.10;;;;;;4921628;29;20043;-91
2021/07/13 07:10:32;;;;;;;9.32;7.80;;;27.30;80.80;;;;;;4920886;29;20031;-91
2021/07/13 07:12:59;;;;;;;8.15;7.20;;;27.40;80.10;;;;;;4931103;29;20028;-92
2021/07/13 07:15:24;;;;;;;9.35;7.78;;;27.40;79.70;;;;;;4912564;29;20020;-92
2021/07/13 07:17:52;;;;;;;8.13;7.32;;;27.40;79.60;;;;;;4935310;29;20046;-91
2021/07/13 07:20:26;;;;;;;11.40;7.18;;;27.50;79.40;;;;;;4939848;29;20039;-91
2021/07/13 07:22:58;;;;;;;7.97;6.50;;;27.60;78.90;;;;;;4950726;29;20022;-91
2021/07/13 07:25:24;;;;;;;8.30;7.07;;;27.70;78.60;;;;;;4939475;29;20028;-92
2021/07/13 07:27:57;;;;;;;8.15;7.35;;;27.80;78.50;;;;;;4938330;29;20024;-93
2021/07/13 07:30:25;;;;;;;8.45;7.18;;;27.80;78.10;;;;;;4942733;29;20043;-91
2021/07/13 07:32:51;;;;;;;11.82;8.05;;;28.00;78.00;;;;;;4940265;29;20079;-92
2021/07/13 07:35:20;;;;;;;9.05;8.18;;;28.10;77.50;;;;;;4906317;29;20035;-91
2021/07/13 07:37:47;;;;;;;9.77;8.77;;;28.20;76.90;;;;;;4906275;29;20448;-91
2021/07/13 07:40:17;;;;;;;10.50;9.32;;;28.30;76.70;;;;;;4921020;29;20036;-91
2021/07/13 07:42:44;;;;;;;11.82;9.95;;;28.40;76.20;;;;;;4920846;29;20114;-92
2021/07/13 07:45:10;;;;;;;11.90;10.63;;;28.40;75.80;;;;;;4920003;29;20445;-92
2021/07/13 07:47:36;;;;;;;10.35;9.00;;;28.40;76.10;;;;;;4936490;29;20055;-91
2021/07/13 07:50:04;;;;;;;10.05;9.05;;;28.40;75.90;;;;;;4919818;29;20121;-92
2021/07/13 07:52:30;;;;;;;10.77;8.75;;;28.50;75.70;;;;;;4936566;29;20680;-92
2021/07/13 07:54:58;;;;;;;11.57;10.48;;;28.60;75.50;;;;;;4918760;29;20035;-92
2021/07/13 07:57:24;;;;;;;11.77;10.57;;;28.50;74.20;;;;;;4917995;29;20032;-92
2021/07/13 07:59:50;;;;;;;11.85;10.23;;;28.30;74.00;;;;;;4918078;29;20106;-91
2021/07/13 08:02:16;;;;;;;11.23;9.63;;;28.10;74.30;;;;;;4918266;29;20032;-92
2021/07/13 08:04:42;;;;;;;10.48;9.38;;;27.80;74.90;;;;;;4917182;29;20027;-92
2021/07/13 08:07:09;;;;;;;10.57;9.57;;;27.70;75.70;;;;;;4920792;29;20454;-91
2021/07/13 08:09:34;;;;;;;11.90;10.63;;;27.70;76.20;;;;;;4935085;29;20035;-92
2021/07/13 08:12:00;;;;;;;10.98;9.85;;;27.80;76.20;;;;;;4921388;29;20028;-93
2021/07/13 08:14:26;;;;;;;11.15;9.93;;;27.90;76.10;;;;;;4935155;29;20034;-91
2021/07/13 08:16:53;;;;;;;11.32;10.13;;;28.00;75.70;;;;;;4918963;29;20348;-91
2021/07/13 08:19:19;;;;;;;12.13;10.38;;;28.10;75.50;;;;;;4935585;29;20079;-91
2021/07/13 08:21:45;;;;;;;11.60;10.30;;;28.20;75.50;;;;;;4919038;29;20023;-91
2021/07/13 08:24:11;;;;;;;12.57;11.27;;;28.30;75.40;;;;;;4919367;29;20444;-91
2021/07/13 08:26:38;;;;;;;10.35;9.32;;;28.50;74.90;;;;;;4936630;29;20056;-93
2021/07/13 08:29:04;;;;;;;11.10;9.98;;;28.60;74.70;;;;;;4919016;29;20047;-92
2021/07/13 08:31:30;;;;;;;12.50;10.25;;;28.70;74.30;;;;;;4919217;29;20031;-92
2021/07/13 08:33:56;;;;;;;9.85;8.85;;;28.80;73.90;;;;;;4936482;29;20075;-91
2021/07/13 08:36:22;;;;;;;9.85;8.90;;;28.90;73.70;;;;;;4936049;29;20032;-91
2021/07/13 08:38:48;;;;;;;11.38;9.75;;;28.90;73.50;;;;;;4919154;29;20030;-91
2021/07/13 08:41:16;;;;;;;12.50;9.90;;;29.00;73.40;;;;;;4919485;29;20027;-90
2021/07/13 08:43:42;;;;;;;11.20;9.63;;;29.00;72.30;;;;;;4922599;29;20031;-91
2021/07/13 08:46:11;;;;;;;10.10;9.05;;;28.90;72.70;;;;;;4923278;29;20039;-91
2021/07/13 08:48:40;;;;;;;12.65;11.45;;;28.80;72.70;;;;;;4922297;29;20036;-90
2021/07/13 08:51:07;;;;;;;11.25;10.15;;;28.60;72.60;;;;;;4922038;29;20209;-90
2021/07/13 08:53:33;;;;;;;13.85;10.15;;;28.40;73.70;;;;;;4938489;29;20023;-90
2021/07/13 08:55:59;;;;;;;13.45;9.75;;;28.40;73.60;;;;;;4939253;29;20078;-90
2021/07/13 08:58:26;;;;;;;10.13;9.05;;;28.30;73.80;;;;;;4922252;29;20028;-91
2021/07/13 09:00:56;;;;;;;9.77;8.77;;;28.30;74.10;;;;;;4922328;29;20020;-91
2021/07/13 09:03:22;;;;;;;10.77;8.55;;;28.40;74.30;;;;;;4922445;29;20111;-91
2021/07/13 09:05:52;;;;;;;10.40;9.40;;;28.60;74.30;;;;;;4922172;29;20166;-91
2021/07/13 09:08:36;;;;;;;10.32;9.15;;;28.70;74.00;;;;;;4921992;29;20059;-91
2021/07/13 09:11:22;;;;;;;10.73;9.73;;;28.90;73.40;;;;;;4921382;29;20047;-91
2021/07/13 09:13:48;;;;;;;10.52;9.43;;;29.00;73.10;;;;;;4922509;29;20026;-91
2021/07/13 09:16:17;;;;;;;9.88;8.70;;;29.00;73.10;;;;;;4921291;29;20110;-91
2021/07/13 09:18:52;;;;;;;11.35;9.68;;;29.10;73.00;;;;;;4922447;29;20036;-92
2021/07/13 09:21:33;;;;;;;11.02;9.77;;;29.20;72.80;;;;;;4922230;29;20373;-90
2021/07/13 09:24:05;;;;;;;12.60;10.23;;;29.40;72.40;;;;;;4915430;29;20028;-89
2021/07/13 09:26:52;;;;;;;9.70;8.77;;;29.40;71.80;;;;;;4927364;29;20114;-90
2021/07/13 09:29:38;;;;;;;8.80;8.00;;;29.40;71.80;;;;;;4930691;29;20024;-89
2021/07/13 09:32:23;;;;;;;9.35;8.35;;;29.50;71.90;;;;;;4925642;29;20039;-92
2021/07/13 09:35:21;;;;;;;;;;;;;;;;;;;;;
2021/07/13 09:37:52;;;;;;;10.23;8.02;;;29.70;71.60;;;;;;4936542;29;20024;-90
2021/07/13 09:40:18;;;;;;;9.48;8.48;;;29.70;71.40;;;;;;4919514;29;20329;-90
2021/07/13 09:42:56;;;;;;;9.50;8.60;;;29.80;71.20;;;;;;4920147;29;20023;-89
2021/07/13 09:45:33;;;;;;;9.38;8.48;;;29.90;70.90;;;;;;4920233;29;20066;-90
2021/07/13 09:48:01;;;;;;;8.40;7.60;;;30.00;70.80;;;;;;4926100;29;20411;-91
2021/07/13 09:50:42;;;;;;;9.52;8.63;;;30.00;70.70;;;;;;4921271;29;20055;-90
2021/07/13 09:53:15;;;;;;;10.52;8.82;;;30.10;70.10;;;;;;4921102;29;20034;-89
2021/07/13 09:55:42;;;;;;;11.93;9.80;;;30.10;70.10;;;;;;4921181;29;20118;-91
2021/07/13 09:58:23;;;;;;;8.20;7.40;;;30.10;70.30;;;;;;4917907;29;20431;-89
2021/07/13 10:00:57;;;;;;;9.40;8.55;;;30.10;69.50;;;;;;4920887;29;20024;-90
2021/07/13 10:17:53;;;;;;;;;;;;;;;;;;;;;
2021/07/13 10:20:48;;;;;;;10.45;9.45;;;30.40;68.40;;;;;;4823258;29;20385;-89
2021/07/13 10:41:53;;;;;;;;;;;;;;;;;;;;;
2021/07/13 10:49:33;;;;;;;;;;;;;;;;;;;;;
2021/07/13 11:24:21;;;;;;;;;;;;;;;;;;;;;
2021/07/13 16:02:01;;;;;;;4.35;3.97;;;41.80;37.70;;;;;;5159474;23;20133;-93
2021/07/13 16:15:43;;;;;;;3.40;3.10;;;38.30;40.10;;;;;;4803978;29;20043;-92
2021/07/13 16:18:09;;;;;;;5.00;3.67;;;37.50;40.80;;;;;;4804341;29;20122;-91
2021/07/13 16:20:35;;;;;;;4.10;3.70;;;36.80;41.20;;;;;;4880021;29;20048;-92
2021/07/13 16:23:01;;;;;;;4.32;3.75;;;36.40;41.80;;;;;;4916065;29;20036;-92
2021/07/13 16:25:27;;;;;;;3.92;3.60;;;35.90;42.30;;;;;;4916646;29;20042;-91
2021/07/13 16:27:53;;;;;;;4.07;3.72;;;35.50;42.80;;;;;;4930714;29;20071;-91
2021/07/13 16:30:19;;;;;;;3.80;3.50;;;35.20;43.00;;;;;;4920036;29;20027;-91
2021/07/13 16:32:45;;;;;;;4.75;3.88;;;34.80;43.50;;;;;;4919524;29;20027;-91
2021/07/13 16:35:12;;;;;;;4.15;3.75;;;34.60;43.80;;;;;;4919609;29;20138;-91
2021/07/13 16:37:39;;;;;;;7.45;3.70;;;34.30;44.20;;;;;;4919642;29;20143;-91
2021/07/13 16:40:06;;;;;;;4.13;3.72;;;34.00;44.40;;;;;;4920122;29;20123;-91
2021/07/13 16:42:32;;;;;;;5.13;3.63;;;33.70;44.70;;;;;;4919332;29;20099;-90
2021/07/13 16:44:58;;;;;;;4.35;3.70;;;33.50;45.20;;;;;;4919512;29;20032;-91
2021/07/13 16:47:24;;;;;;;4.43;4.00;;;33.30;45.50;;;;;;4920135;29;20122;-92
2021/07/13 16:49:50;;;;;;;4.07;3.67;;;33.10;45.80;;;;;;4919169;29;20471;-91
2021/07/13 16:52:15;;;;;;;4.90;4.40;;;32.90;46.20;;;;;;4919612;29;20039;-91
2021/07/13 16:54:42;;;;;;;6.53;4.28;;;32.70;46.60;;;;;;4919670;29;20451;-91
2021/07/13 16:57:08;;;;;;;4.40;4.00;;;32.50;47.00;;;;;;4926795;29;20067;-91
2021/07/13 16:59:33;;;;;;;3.90;3.50;;;32.30;47.20;;;;;;4938598;29;20070;-92
2021/07/13 17:01:59;;;;;;;5.47;4.65;;;32.10;47.70;;;;;;4941749;28;20395;-91
2021/07/13 17:04:25;;;;;;;4.63;4.07;;;31.90;48.20;;;;;;4977994;28;20053;-91
2021/07/13 17:06:51;;;;;;;4.60;4.10;;;31.70;48.50;;;;;;4962000;28;20496;-91
2021/07/13 17:09:16;;;;;;;4.28;3.88;;;31.50;48.90;;;;;;4978450;28;20062;-91
2021/07/13 17:11:42;;;;;;;4.78;4.38;;;31.30;49.20;;;;;;4960995;28;20062;-92
2021/07/13 17:14:09;;;;;;;4.90;3.97;;;31.10;49.40;;;;;;4961155;28;20035;-92
2021/07/13 17:16:35;;;;;;;3.83;3.53;;;31.00;49.70;;;;;;4961129;28;20046;-91
2021/07/13 17:19:01;;;;;;;6.75;3.90;;;30.90;49.70;;;;;;4960761;28;20086;-92
2021/07/13 17:21:27;;;;;;;5.35;4.00;;;30.70;49.90;;;;;;4961300;28;20030;-91
2021/07/13 17:23:53;;;;;;;3.78;3.45;;;30.60;50.20;;;;;;4960940;28;20042;-91
2021/07/13 17:26:18;;;;;;;3.88;3.55;;;30.40;50.40;;;;;;4962056;28;20129;-92
2021/07/13 17:28:44;;;;;;;4.00;3.60;;;30.20;50.50;;;;;;4960860;28;20042;-91
2021/07/13 17:31:10;;;;;;;4.43;4.03;;;30.10;50.70;;;;;;4960453;28;20035;-91
2021/07/13 17:33:36;;;;;;;4.75;3.92;;;29.90;50.70;;;;;;4960380;28;20058;-92
2021/07/13 17:36:02;;;;;;;3.92;3.50;;;29.80;50.90;;;;;;4960759;28;20486;-92
2021/07/13 17:38:28;;;;;;;4.28;3.85;;;29.70;51.10;;;;;;4960679;28;20043;-91
2021/07/13 17:40:56;;;;;;;7.15;4.18;;;29.60;51.30;;;;;;4960290;28;20031;-92
2021/07/13 17:43:22;;;;;;;4.32;3.72;;;29.40;51.70;;;;;;4960420;28;20034;-91
2021/07/13 17:45:48;;;;;;;3.95;3.50;;;29.40;52.50;;;;;;4960266;28;20039;-91
2021/07/13 17:48:13;;;;;;;7.90;3.30;;;29.30;52.20;;;;;;4960157;28;20093;-91
2021/07/13 17:50:39;;;;;;;5.75;4.03;;;29.10;52.40;;;;;;4960627;28;20047;-90
2021/07/13 17:53:06;;;;;;;5.07;3.78;;;29.00;52.80;;;;;;4960365;28;20038;-91
2021/07/13 17:55:32;;;;;;;5.80;4.72;;;28.90;53.50;;;;;;4960510;28;20047;-91
2021/07/13 17:57:58;;;;;;;5.97;4.15;;;28.80;54.10;;;;;;4965998;28;20031;-91
2021/07/13 18:00:24;;;;;;;9.32;4.20;;;28.70;54.60;;;;;;4972020;28;20105;-91
2021/07/13 18:02:50;;;;;;;5.63;4.07;;;28.60;55.10;;;;;;4972601;28;20110;-90
2021/07/13 18:05:17;;;;;;;5.97;4.32;;;28.40;55.50;;;;;;4989446;28;20394;-91
2021/07/13 18:07:45;;;;;;;6.35;4.50;;;28.40;56.00;;;;;;4973373;28;20049;-91
2021/07/13 18:10:13;;;;;;;7.10;4.85;;;28.20;56.20;;;;;;4986589;28;20034;-92
2021/07/13 18:12:40;;;;;;;7.45;4.38;;;28.10;56.60;;;;;;4961665;28;20035;-91
2021/07/13 18:15:08;;;;;;;7.70;4.95;;;28.00;56.80;;;;;;4962910;28;20482;-91
2021/07/13 18:17:33;;;;;;;5.32;4.70;;;27.90;57.20;;;;;;4965907;28;20046;-91
2021/07/13 18:19:59;;;;;;;8.30;4.43;;;27.80;57.60;;;;;;4960475;28;20457;-91
2021/07/13 18:22:25;;;;;;;5.97;5.38;;;27.70;58.00;;;;;;4959773;28;20482;-91
2021/07/13 18:24:51;;;;;;;5.95;4.88;;;27.60;58.50;;;;;;4977455;28;20470;-91
2021/07/13 18:27:19;;;;;;;6.35;5.28;;;27.50;58.80;;;;;;4960492;28;20177;-91
2021/07/13 18:29:45;;;;;;;8.40;5.57;;;27.40;58.90;;;;;;4962830;28;20042;-91
2021/07/13 18:32:12;;;;;;;9.38;5.28;;;27.40;59.20;;;;;;4963022;28;20042;-91
2021/07/13 18:34:39;;;;;;;7.45;5.60;;;27.30;59.50;;;;;;4978205;28;20062;-91
2021/07/13 18:37:05;;;;;;;6.85;5.20;;;27.20;59.80;;;;;;4959666;28;20043;-91
2021/07/13 18:39:32;;;;;;;5.72;5.13;;;27.10;60.30;;;;;;4959516;28;20454;-91
2021/07/13 18:41:57;;;;;;;6.65;5.50;;;27.00;60.70;;;;;;4959592;28;20039;-90
2021/07/13 18:44:23;;;;;;;7.55;5.45;;;26.90;61.20;;;;;;4959495;28;20118;-91
2021/07/13 18:46:49;;;;;;;6.88;5.55;;;26.80;61.70;;;;;;4959414;28;20070;-91
2021/07/13 18:49:16;;;;;;;6.40;5.03;;;26.80;62.30;;;;;;4959895;28;20038;-90
2021/07/13 18:51:42;;;;;;;8.60;5.90;;;26.70;62.60;;;;;;4959991;28;20496;-91
2021/07/13 18:54:08;;;;;;;6.60;5.68;;;26.60;63.10;;;;;;4959306;28;20039;-90
2021/07/13 18:56:34;;;;;;;5.93;5.30;;;26.60;63.70;;;;;;4959608;28;20046;-91
2021/07/13 18:59:00;;;;;;;9.35;6.22;;;26.50;64.00;;;;;;4959311;28;20081;-91
2021/07/13 19:01:26;;;;;;;10.32;5.13;;;26.50;64.50;;;;;;4959864;28;20043;-91